Time;durP1;ratioP1;P1;durP2;ratioP2;P2;SDS_P1;SDS_P2;PMS_P1;PMS_P2;Temp;Humidity;BMP_temperature;BMP_pressure;BME280_temperature;BME280_humidity;BME280_pressure;Samples;Min_cycle;Max_cycle;Signal;HPM_P1;HPM_P2
2021/11/04 00:02:08;;;;;;;8.88;2.55;;;;;;;4.48;100.00;93920.00;5023810;28;20041;-78
2021/11/04 00:04:34;;;;;;;5.57;2.58;;;;;;;4.40;100.00;93920.56;5030212;28;20418;-79
2021/11/04 00:07:00;;;;;;;7.82;2.85;;;;;;;4.38;100.00;93922.66;5032597;28;20053;-78
2021/11/04 00:09:26;;;;;;;5.28;2.47;;;;;;;4.64;100.00;93913.66;5031944;28;20049;-77
2021/11/04 00:11:51;;;;;;;6.40;2.92;;;;;;;4.45;100.00;93908.31;5015256;28;20052;-78
2021/11/04 00:14:17;;;;;;;6.75;3.08;;;;;;;4.46;100.00;93916.88;5024238;28;20636;-78
2021/11/04 00:16:43;;;;;;;10.40;3.30;;;;;;;4.63;100.00;93908.72;5032349;28;20057;-78
2021/11/04 00:19:09;;;;;;;7.05;2.65;;;;;;;4.53;100.00;93919.97;5031588;28;20045;-78
2021/11/04 00:21:34;;;;;;;3.47;1.90;;;;;;;4.57;100.00;93910.56;5015771;28;20124;-78
2021/11/04 00:24:00;;;;;;;3.95;1.92;;;;;;;4.54;100.00;93921.53;5020411;28;20066;-78
2021/11/04 00:26:26;;;;;;;4.00;1.90;;;;;;;4.61;100.00;93906.38;5030264;28;20037;-78
2021/11/04 00:28:53;;;;;;;4.45;1.83;;;;;;;4.66;100.00;93908.94;5051241;28;20116;-78
2021/11/04 00:31:19;;;;;;;2.97;1.85;;;;;;;4.61;100.00;93911.59;5011194;28;20038;-77
2021/11/04 00:33:45;;;;;;;2.83;1.58;;;;;;;4.52;100.00;93913.19;5017761;28;20093;-78
2021/11/04 00:36:11;;;;;;;2.65;1.58;;;;;;;4.50;100.00;93910.09;5031031;28;20049;-78
2021/11/04 00:38:38;;;;;;;5.43;1.67;;;;;;;4.53;100.00;93914.75;5031055;28;20041;-78
2021/11/04 00:41:03;;;;;;;2.47;1.55;;;;;;;4.53;100.00;93904.34;5031510;28;20049;-78
2021/11/04 00:43:29;;;;;;;2.83;1.80;;;;;;;4.56;100.00;93903.78;5028881;28;20513;-78
2021/11/04 00:45:54;;;;;;;2.50;1.48;;;;;;;4.46;100.00;93903.88;5030384;28;20732;-78
2021/11/04 00:48:20;;;;;;;3.38;1.77;;;;;;;4.52;100.00;93897.56;5031307;28;20454;-78
2021/11/04 00:50:45;;;;;;;3.08;1.70;;;;;;;4.44;100.00;93905.94;5012792;28;20073;-78
2021/11/04 00:53:11;;;;;;;2.22;1.52;;;;;;;4.52;100.00;93892.34;5013860;28;20056;-78
2021/11/04 00:55:37;;;;;;;3.17;1.92;;;;;;;4.54;100.00;93890.28;5030545;28;20053;-78
2021/11/04 00:58:03;;;;;;;4.78;1.80;;;;;;;4.37;100.00;93888.03;5031901;28;20423;-78
2021/11/04 01:00:29;;;;;;;4.60;1.98;;;;;;;4.30;100.00;93884.94;5031483;28;20048;-78
2021/11/04 01:02:55;;;;;;;4.20;1.90;;;;;;;4.33;100.00;93884.41;5023465;28;20034;-78
2021/11/04 01:05:20;;;;;;;3.50;1.90;;;;;;;4.50;100.00;93884.03;5021981;28;20046;-78
2021/11/04 01:07:46;;;;;;;3.53;2.00;;;;;;;4.46;100.00;93878.59;5011157;28;20068;-78
2021/11/04 01:10:12;;;;;;;2.75;1.70;;;;;;;4.38;100.00;93886.19;5016453;28;20069;-78
2021/11/04 01:12:37;;;;;;;4.20;2.10;;;;;;;4.32;100.00;93883.63;5023291;28;20403;-78
2021/11/04 01:15:05;;;;;;;6.15;2.13;;;;;;;4.48;100.00;93881.72;5030289;28;20038;-78
2021/11/04 01:17:32;;;;;;;5.88;2.00;;;;;;;4.52;100.00;93892.34;5030956;28;20570;-78
2021/11/04 01:19:58;;;;;;;3.35;1.80;;;;;;;4.49;100.00;93888.47;5030783;28;20041;-78
2021/11/04 01:22:23;;;;;;;2.75;1.70;;;;;;;4.33;100.00;93882.56;5030963;28;20596;-78
2021/11/04 01:24:49;;;;;;;2.67;1.70;;;;;;;4.34;100.00;93891.94;5023555;28;20092;-78
2021/11/04 01:27:14;;;;;;;2.92;1.90;;;;;;;4.31;100.00;93889.88;5030248;28;20045;-78
2021/11/04 01:29:40;;;;;;;3.42;2.05;;;;;;;4.54;100.00;93911.13;5028818;28;20117;-78
2021/11/04 01:32:06;;;;;;;6.97;3.55;;;;;;;4.61;100.00;93898.56;5010315;28;20050;-79
2021/11/04 01:34:31;;;;;;;4.00;2.15;;;;;;;4.59;100.00;93886.84;5018463;28;20491;-78
2021/11/04 01:36:57;;;;;;;3.47;1.92;;;;;;;4.58;100.00;93880.84;5034475;28;20052;-78
2021/11/04 01:39:22;;;;;;;4.47;2.08;;;;;;;4.48;100.00;93870.50;5034682;28;20049;-78
2021/11/04 01:41:48;;;;;;;6.15;2.50;;;;;;;4.51;100.00;93867.34;5034122;28;20048;-79
2021/11/04 01:44:14;;;;;;;5.07;2.17;;;;;;;4.43;100.00;93857.53;5030675;28;20072;-78
2021/11/04 01:46:40;;;;;;;4.00;2.25;;;;;;;4.31;100.00;93840.41;5033943;28;20068;-78
2021/11/04 01:49:06;;;;;;;5.53;3.05;;;;;;;4.39;100.00;93851.28;5032886;28;20083;-78
2021/11/04 01:51:32;;;;;;;4.50;2.53;;;;;;;4.56;100.00;93856.91;5032215;28;20515;-78
2021/11/04 01:53:57;;;;;;;4.75;2.42;;;;;;;4.33;100.00;93843.50;5027754;28;20119;-78
2021/11/04 01:56:24;;;;;;;4.45;2.70;;;;;;;4.50;100.00;93863.22;5033215;28;20649;-78
2021/11/04 01:58:51;;;;;;;5.55;2.40;;;;;;;4.61;100.00;93885.53;5033524;28;20518;-78
2021/11/04 02:01:17;;;;;;;4.13;2.20;;;;;;;4.52;100.00;93881.94;5033543;28;20045;-78
2021/11/04 02:03:49;;;;;;;4.57;2.35;;;;;;;4.53;100.00;93904.34;5032848;28;20072;-78
2021/11/04 02:06:23;;;;;;;6.70;2.45;;;;;;;4.60;100.00;93894.41;5034868;28;20049;-79
2021/11/04 02:08:48;;;;;;;;;;;;;;;4.51;100.00;93880.38;5033189;28;20041;-78
2021/11/04 02:11:17;;;;;;;2.58;1.10;;;;;;;4.56;100.00;93893.38;5019047;28;19922;-78
2021/11/04 02:13:57;;;;;;;2.83;1.42;;;;;;;4.52;100.00;93892.34;5043110;28;20044;-78
2021/11/04 02:16:25;;;;;;;2.22;1.25;;;;;;;4.34;100.00;93886.72;5018537;28;20109;-78
2021/11/04 02:18:55;;;;;;;3.05;1.40;;;;;;;4.34;100.00;93865.91;5020759;28;20033;-79
2021/11/04 02:21:44;;;;;;;1.85;1.10;;;;;;;4.22;100.00;93857.63;5028861;28;20052;-79
2021/11/04 02:24:21;;;;;;;1.38;1.10;;;;;;;4.08;100.00;93851.47;5030370;28;20462;-79
2021/11/04 02:26:49;;;;;;;5.35;1.50;;;;;;;4.18;100.00;93851.44;5017448;28;20061;-79
2021/11/04 02:29:16;;;;;;;1.85;1.33;;;;;;;4.08;100.00;93857.47;5032264;28;20045;-79
2021/11/04 02:31:43;;;;;;;1.45;1.30;;;;;;;4.12;100.00;93862.91;5032284;28;20048;-79
2021/11/04 02:34:08;;;;;;;1.48;1.10;;;;;;;4.19;100.00;93847.75;5020721;28;20038;-79
2021/11/04 02:36:36;;;;;;;2.97;1.20;;;;;;;4.10;100.00;93850.16;5015946;28;20099;-79
2021/11/04 02:39:02;;;;;;;2.20;1.20;;;;;;;4.05;100.00;93846.78;5028922;28;20673;-79
2021/11/04 02:41:30;;;;;;;1.40;1.10;;;;;;;4.09;100.00;93847.81;5029804;28;20542;-79
2021/11/04 02:43:57;;;;;;;1.10;0.95;;;;;;;4.04;100.00;93850.44;5026158;28;20092;-78
2021/11/04 02:46:22;;;;;;;2.55;1.25;;;;;;;3.94;100.00;93861.69;5015510;28;20090;-79
2021/11/04 02:48:49;;;;;;;1.52;0.98;;;;;;;3.96;100.00;93870.78;5011243;28;20081;-78
2021/11/04 02:51:15;;;;;;;1.90;1.10;;;;;;;4.05;100.00;93883.25;5022063;28;20041;-79
2021/11/04 02:53:45;;;;;;;1.30;1.00;;;;;;;3.88;100.00;93879.16;5020328;28;20052;-78
2021/11/04 02:56:11;;;;;;;1.23;0.85;;;;;;;3.89;100.00;93885.91;5017173;28;20050;-79
2021/11/04 02:58:36;;;;;;;1.35;0.95;;;;;;;3.83;100.00;93875.81;5031745;28;20103;-78
2021/11/04 03:01:05;;;;;;;1.13;0.80;;;;;;;3.68;100.00;93879.22;5031312;28;20494;-79
2021/11/04 03:03:31;;;;;;;4.22;1.10;;;;;;;3.59;100.00;93877.19;5046430;28;20378;-79
2021/11/04 03:05:57;;;;;;;2.75;1.30;;;;;;;3.60;100.00;93868.31;5030640;28;20041;-78
2021/11/04 03:08:27;;;;;;;1.20;0.90;;;;;;;3.56;100.00;93861.31;5015335;28;20088;-78
2021/11/04 03:10:53;;;;;;;1.27;1.15;;;;;;;3.56;100.00;93850.91;5020889;28;20038;-79
2021/11/04 03:13:19;;;;;;;1.15;0.90;;;;;;;3.48;100.00;93865.25;5029689;28;20396;-78
2021/11/04 03:15:49;;;;;;;1.42;1.00;;;;;;;3.48;100.00;93865.25;5028136;28;20053;-79
2021/11/04 03:18:17;;;;;;;2.17;1.00;;;;;;;3.58;100.00;93854.81;5023042;28;20041;-79
2021/11/04 03:20:45;;;;;;;1.48;0.82;;;;;;;3.53;100.00;93852.22;5030471;28;20041;-78
2021/11/04 03:23:11;;;;;;;1.10;1.00;;;;;;;3.45;100.00;93850.19;5024969;28;20502;-79
2021/11/04 03:25:38;;;;;;;1.02;0.98;;;;;;;3.53;100.00;93862.63;5020475;28;20076;-78
2021/11/04 03:28:05;;;;;;;1.23;1.00;;;;;;;3.54;100.00;93856.38;5022150;28;20067;-78
2021/11/04 03:30:40;;;;;;;4.22;1.20;;;;;;;3.37;100.00;93848.13;5018784;28;20446;-79
2021/11/04 03:33:09;;;;;;;2.17;1.10;;;;;;;3.46;100.00;93851.72;5026214;28;20422;-79
2021/11/04 03:35:37;;;;;;;1.83;1.10;;;;;;;3.38;100.00;93854.88;5029827;28;20048;-79
2021/11/04 03:38:07;;;;;;;1.08;1.00;;;;;;;3.41;100.00;93859.56;5025748;28;20048;-79
2021/11/04 03:40:33;;;;;;;0.93;0.80;;;;;;;3.33;100.00;93867.88;5028765;28;20034;-79
2021/11/04 03:43:00;;;;;;;1.20;0.95;;;;;;;3.45;100.00;93897.75;5030244;28;20495;-79
2021/11/04 03:45:26;;;;;;;1.13;1.00;;;;;;;3.33;100.00;93904.28;5028972;28;20116;-79
2021/11/04 03:47:52;;;;;;;1.58;1.23;;;;;;;3.38;100.00;93901.69;5027993;28;20503;-79
2021/11/04 03:50:18;;;;;;;0.85;0.80;;;;;;;3.47;100.00;93910.50;5039639;28;20499;-78
2021/11/04 03:52:44;;;;;;;1.75;1.25;;;;;;;3.45;100.00;93917.78;5029788;28;20048;-78
2021/11/04 03:55:12;;;;;;;2.20;1.42;;;;;;;3.34;100.00;93916.25;5028526;28;20034;-79
2021/11/04 03:57:43;;;;;;;3.03;1.20;;;;;;;3.39;100.00;93930.03;5026668;28;20045;-78
2021/11/04 04:00:12;;;;;;;1.00;0.90;;;;;;;3.35;100.00;93923.00;5018820;28;20121;-79
2021/11/04 04:02:39;;;;;;;3.20;1.20;;;;;;;3.26;100.00;93920.94;5028802;28;20446;-79
2021/11/04 04:05:05;;;;;;;3.22;1.50;;;;;;;3.17;100.00;93916.53;5028450;28;20528;-79
2021/11/04 04:07:31;;;;;;;1.30;1.20;;;;;;;3.24;100.00;93928.22;5029876;28;20067;-79
2021/11/04 04:09:58;;;;;;;1.45;1.20;;;;;;;3.20;100.00;93937.56;5019652;28;20049;-79
2021/11/04 04:12:24;;;;;;;1.98;1.30;;;;;;;3.24;100.00;93938.59;5027320;28;20049;-79
2021/11/04 04:14:49;;;;;;;1.38;1.10;;;;;;;3.24;100.00;93928.22;5028125;28;20048;-79
2021/11/04 04:17:17;;;;;;;1.80;1.38;;;;;;;3.09;100.00;93930.84;5044081;28;20396;-79
2021/11/04 04:19:42;;;;;;;1.38;0.90;;;;;;;3.32;100.00;93928.72;5016892;28;20684;-79
2021/11/04 04:22:08;;;;;;;1.60;1.15;;;;;;;3.31;100.00;93932.38;5026206;28;20053;-79
2021/11/04 04:24:33;;;;;;;1.13;0.98;;;;;;;3.30;100.00;93931.59;5029022;28;20045;-78
2021/11/04 04:27:00;;;;;;;2.28;1.27;;;;;;;3.22;100.00;93935.50;5019077;28;20045;-78
2021/11/04 04:29:26;;;;;;;1.58;1.20;;;;;;;3.25;100.00;93929.78;5021831;28;20040;-78
2021/11/04 04:31:52;;;;;;;1.40;1.20;;;;;;;3.10;100.00;93917.56;5024279;28;20037;-79
2021/11/04 04:34:18;;;;;;;1.38;1.10;;;;;;;3.22;100.00;93930.31;5030437;28;20163;-79
2021/11/04 04:36:44;;;;;;;1.48;1.17;;;;;;;3.19;100.00;93936.03;5028732;28;20080;-78
2021/11/04 04:39:09;;;;;;;2.38;1.30;;;;;;;3.29;100.00;93954.22;5021587;28;20085;-79
2021/11/04 04:41:35;;;;;;;2.30;1.58;;;;;;;3.25;100.00;93955.78;5014436;28;20041;-78
2021/11/04 04:44:00;;;;;;;1.63;1.05;;;;;;;3.31;100.00;93973.97;5027673;28;20124;-78
2021/11/04 04:46:26;;;;;;;1.25;0.90;;;;;;;3.21;100.00;93985.94;5027636;28;20494;-78
2021/11/04 04:48:52;;;;;;;1.83;1.02;;;;;;;3.22;100.00;93987.50;5018595;28;20045;-79
2021/11/04 04:51:18;;;;;;;1.20;1.10;;;;;;;3.16;100.00;93988.53;5023697;28;20066;-79
2021/11/04 04:53:44;;;;;;;2.28;1.00;;;;;;;3.17;100.00;93969.28;5049304;28;20018;-78
2021/11/04 04:56:09;;;;;;;1.58;1.00;;;;;;;3.18;100.00;93957.09;5054577;28;20072;-78
2021/11/04 04:58:35;;;;;;;3.55;1.15;;;;;;;3.17;100.00;93947.72;5054991;28;20089;-78
2021/11/04 05:01:02;;;;;;;1.05;1.00;;;;;;;3.14;100.00;93949.00;5053673;28;20037;-78
2021/11/04 05:03:27;;;;;;;1.90;1.23;;;;;;;3.22;100.00;93956.28;5055598;28;20041;-78
2021/11/04 05:05:53;;;;;;;1.95;1.08;;;;;;;3.16;100.00;93959.94;5053798;28;20048;-78
2021/11/04 05:08:18;;;;;;;1.10;1.00;;;;;;;3.17;100.00;93958.88;5054927;28;20071;-77
2021/11/04 05:10:44;;;;;;;1.20;1.10;;;;;;;3.16;100.00;93972.94;5054409;28;20073;-78
2021/11/04 05:13:10;;;;;;;2.25;1.40;;;;;;;3.07;100.00;93982.28;5047710;28;20030;-78
2021/11/04 05:15:35;;;;;;;1.00;0.90;;;;;;;3.12;100.00;93971.91;5048509;28;20029;-78
2021/11/04 05:18:03;;;;;;;1.05;0.95;;;;;;;3.17;100.00;93982.28;5053486;28;20055;-78
2021/11/04 05:20:29;;;;;;;1.23;1.00;;;;;;;3.13;100.00;93989.03;5053324;28;20021;-78
2021/11/04 05:22:54;;;;;;;1.23;1.10;;;;;;;3.11;100.00;93985.94;5019152;28;20041;-79
2021/11/04 05:25:20;;;;;;;2.97;0.98;;;;;;;3.16;100.00;93988.53;5023846;28;20056;-78
2021/11/04 05:27:48;;;;;;;1.15;1.02;;;;;;;3.18;100.00;93991.66;5032962;28;21564;-78
2021/11/04 05:30:18;;;;;;;0.80;0.80;;;;;;;3.14;100.00;93990.59;5027710;28;20053;-78
2021/11/04 05:32:44;;;;;;;3.13;1.02;;;;;;;3.04;100.00;93990.59;5026402;28;20049;-79
2021/11/04 05:35:10;;;;;;;1.70;0.95;;;;;;;3.09;100.00;94008.81;5026643;28;20569;-79
2021/11/04 05:37:36;;;;;;;1.00;0.90;;;;;;;3.08;100.00;94017.63;5028213;28;20044;-78
2021/11/04 05:40:01;;;;;;;0.98;0.80;;;;;;;2.97;100.00;94026.47;5027093;28;20664;-79
2021/11/04 05:42:27;;;;;;;0.50;0.50;;;;;;;2.98;100.00;94034.00;5042296;28;20038;-78
2021/11/04 05:44:53;;;;;;;3.78;0.93;;;;;;;2.97;100.00;94036.84;5025233;28;20132;-79
2021/11/04 05:47:18;;;;;;;0.95;0.90;;;;;;;3.03;100.00;94030.63;5022616;28;20041;-78
2021/11/04 05:49:44;;;;;;;0.98;0.65;;;;;;;3.03;100.00;94035.81;5024559;28;20037;-78
2021/11/04 05:52:10;;;;;;;1.20;0.90;;;;;;;3.00;100.00;94046.72;5024967;28;20045;-79
2021/11/04 05:54:37;;;;;;;2.97;1.13;;;;;;;2.94;100.00;94044.13;5023873;28;20053;-79
2021/11/04 05:57:04;;;;;;;1.77;1.20;;;;;;;2.93;100.00;94047.75;5023408;28;20049;-79
2021/11/04 05:59:29;;;;;;;1.20;0.88;;;;;;;2.90;100.00;94058.69;5027816;28;20042;-79
2021/11/04 06:01:55;;;;;;;1.20;1.00;;;;;;;2.93;100.00;94065.97;5028843;28;20045;-79
2021/11/04 06:04:21;;;;;;;1.75;1.13;;;;;;;2.90;100.00;94058.69;5017098;28;20153;-79
2021/11/04 06:06:48;;;;;;;1.30;1.08;;;;;;;2.89;100.00;94056.34;5021941;28;20045;-79
2021/11/04 06:09:13;;;;;;;1.73;1.05;;;;;;;2.82;100.00;94043.56;5024140;28;20046;-79
2021/11/04 06:11:39;;;;;;;1.42;1.13;;;;;;;2.70;100.00;94045.63;5008370;28;20044;-79
2021/11/04 06:14:05;;;;;;;1.13;0.95;;;;;;;2.78;100.00;94060.72;5017669;28;20792;-79
2021/11/04 06:16:31;;;;;;;1.35;1.13;;;;;;;2.76;100.00;94073.19;5013806;28;20180;-79
2021/11/04 06:18:56;;;;;;;3.03;1.50;;;;;;;2.80;100.00;94069.03;5012007;28;20037;-78
2021/11/04 06:21:23;;;;;;;2.20;1.00;;;;;;;2.72;100.00;94069.53;5030562;28;20063;-79
2021/11/04 06:23:49;;;;;;;2.28;1.10;;;;;;;2.76;100.00;94079.16;5027959;28;20095;-79
2021/11/04 06:26:15;;;;;;;2.75;1.20;;;;;;;2.82;100.00;94077.34;5030210;28;20041;-79
2021/11/04 06:28:41;;;;;;;1.77;1.13;;;;;;;2.80;100.00;94079.41;5046250;28;20107;-79
2021/11/04 06:31:06;;;;;;;3.10;1.42;;;;;;;2.82;100.00;94072.16;5022930;28;20042;-79
2021/11/04 06:33:32;;;;;;;2.40;1.55;;;;;;;2.86;100.00;94073.22;5025382;28;20041;-80
2021/11/04 06:35:58;;;;;;;1.30;1.08;;;;;;;2.84;100.00;94079.69;5030663;28;20829;-79
2021/11/04 06:38:24;;;;;;;2.47;1.40;;;;;;;2.83;100.00;94084.13;5030055;28;20494;-80
2021/11/04 06:40:50;;;;;;;2.38;1.20;;;;;;;2.74;100.00;94085.63;5031105;28;20052;-80
2021/11/04 06:43:16;;;;;;;2.65;1.33;;;;;;;2.87;100.00;94085.16;5029047;28;20051;-79
2021/11/04 06:45:52;;;;;;;2.72;1.20;;;;;;;2.88;100.00;94097.13;5017025;28;20053;-79
2021/11/04 06:48:31;;;;;;;1.92;1.27;;;;;;;2.93;100.00;94093.75;5031559;28;20041;-79
2021/11/04 06:50:59;;;;;;;1.40;1.02;;;;;;;2.90;100.00;94105.44;5046304;28;20141;-79
2021/11/04 06:53:27;;;;;;;1.48;1.00;;;;;;;2.88;100.00;94117.91;5017909;28;20034;-80
2021/11/04 06:55:54;;;;;;;1.48;1.00;;;;;;;2.82;100.00;94105.94;5024117;28;20045;-80
2021/11/04 06:58:29;;;;;;;1.33;1.20;;;;;;;2.83;100.00;94120.50;5011309;28;20048;-80
2021/11/04 07:00:55;;;;;;;;;;;;;;;2.83;100.00;94127.50;5020826;28;20044;-80
2021/11/04 07:03:27;;;;;;;2.05;1.17;;;;;;;2.94;100.00;94132.50;5029352;28;19924;-79
2021/11/04 07:06:08;;;;;;;1.88;1.48;;;;;;;2.87;100.00;94126.72;5019476;28;20565;-80
2021/11/04 07:08:41;;;;;;;1.17;0.98;;;;;;;2.90;100.00;94149.63;5031109;28;20103;-80
2021/11/04 07:11:07;;;;;;;2.10;1.33;;;;;;;2.90;100.00;94151.41;5026561;28;20060;-80
2021/11/04 07:13:33;;;;;;;2.72;1.60;;;;;;;2.99;100.00;94152.50;5017732;28;20065;-80
2021/11/04 07:16:01;;;;;;;2.35;1.42;;;;;;;3.00;100.00;94155.88;5023091;28;20073;-80
2021/11/04 07:18:27;;;;;;;1.77;1.50;;;;;;;2.93;100.00;94148.31;5018186;28;20178;-80
2021/11/04 07:21:02;;;;;;;2.20;1.48;;;;;;;2.98;100.00;94153.53;5029807;28;20091;-78
2021/11/04 07:23:38;;;;;;;2.22;1.40;;;;;;;2.90;100.00;94167.00;5043748;28;20045;-78
2021/11/04 07:26:07;;;;;;;1.80;1.50;;;;;;;2.91;100.00;94163.38;5027794;28;20558;-80
2021/11/04 07:28:38;;;;;;;1.70;1.30;;;;;;;2.81;100.00;94168.53;5028259;28;20071;-81
2021/11/04 07:31:11;;;;;;;1.83;1.30;;;;;;;2.90;100.00;94167.81;5026091;28;20042;-81
2021/11/04 07:33:43;;;;;;;2.03;1.40;;;;;;;2.84;100.00;94174.00;5014737;28;20045;-80
2021/11/04 07:36:11;;;;;;;1.40;1.20;;;;;;;2.99;100.00;94191.50;5021306;28;20124;-78
2021/11/04 07:38:38;;;;;;;1.23;1.13;;;;;;;2.92;100.00;94191.72;5014849;28;20529;-79
2021/11/04 07:41:05;;;;;;;1.83;1.25;;;;;;;2.91;100.00;94184.94;5016133;28;20069;-81
2021/11/04 07:43:31;;;;;;;2.13;1.42;;;;;;;2.97;100.00;94187.59;5020608;28;20042;-79
2021/11/04 07:45:58;;;;;;;2.45;1.30;;;;;;;3.09;100.00;94201.16;5027435;28;20048;-80
2021/11/04 07:48:24;;;;;;;1.85;1.30;;;;;;;3.14;100.00;94208.97;5016588;28;20056;-79
2021/11/04 07:50:52;;;;;;;1.38;1.00;;;;;;;3.18;100.00;94204.81;5014772;28;20064;-80
2021/11/04 07:53:18;;;;;;;1.40;0.93;;;;;;;3.29;100.00;94214.22;5011576;28;20048;-80
2021/11/04 07:55:43;;;;;;;1.02;0.82;;;;;;;3.23;100.00;94211.84;5019043;28;20056;-80
2021/11/04 07:58:09;;;;;;;1.45;0.98;;;;;;;3.26;100.00;94212.13;5020609;28;20037;-80
2021/11/04 08:00:35;;;;;;;1.58;1.00;;;;;;;3.31;100.00;94228.81;5017208;28;20045;-80
2021/11/04 08:03:00;;;;;;;1.30;1.10;;;;;;;3.28;100.00;94219.69;5011815;28;20056;-80
2021/11/04 08:05:27;;;;;;;1.50;0.93;;;;;;;3.43;100.00;94226.75;5033449;28;20522;-80
2021/11/04 08:07:52;;;;;;;1.05;0.95;;;;;;;3.41;100.00;94229.59;5019021;28;20084;-81
2021/11/04 08:10:20;;;;;;;1.15;0.98;;;;;;;3.57;100.00;94227.81;5030587;28;20463;-81
2021/11/04 08:12:46;;;;;;;1.10;0.95;;;;;;;3.61;100.00;94218.47;5021380;28;20042;-81
2021/11/04 08:15:13;;;;;;;0.57;0.57;;;;;;;3.67;100.00;94231.50;5023848;28;20577;-80
2021/11/04 08:17:39;;;;;;;1.17;0.90;;;;;;;3.74;100.00;94237.25;5027488;28;20518;-80
2021/11/04 08:20:08;;;;;;;1.63;0.70;;;;;;;3.76;100.00;94235.94;5014141;28;20045;-79
2021/11/04 08:22:34;;;;;;;0.82;0.80;;;;;;;3.83;100.00;94248.69;5016897;28;20127;-80
2021/11/04 08:25:00;;;;;;;0.90;0.70;;;;;;;3.78;100.00;94254.69;5024111;28;20543;-81
2021/11/04 08:27:26;;;;;;;0.82;0.80;;;;;;;3.76;100.00;94243.72;5019267;28;20044;-78
2021/11/04 08:29:52;;;;;;;0.90;0.77;;;;;;;3.75;100.00;94238.78;5016894;28;20037;-79
2021/11/04 08:32:19;;;;;;;1.58;0.90;;;;;;;3.75;100.00;94259.59;5017118;28;20407;-78
2021/11/04 08:34:44;;;;;;;2.15;1.20;;;;;;;3.86;100.00;94266.41;5016914;28;20042;-79
2021/11/04 08:37:11;;;;;;;1.00;0.80;;;;;;;3.91;100.00;94274.22;5013904;28;20057;-80
2021/11/04 08:39:37;;;;;;;0.70;0.70;;;;;;;3.77;99.83;94263.53;5024506;28;20049;-80
2021/11/04 08:42:04;;;;;;;1.10;0.82;;;;;;;3.78;100.00;94274.72;5023313;28;20056;-80
2021/11/04 08:44:30;;;;;;;1.30;0.93;;;;;;;3.77;100.00;94279.13;5024300;28;20037;-81
2021/11/04 08:46:56;;;;;;;1.17;0.90;;;;;;;3.74;100.00;94286.69;5023843;28;20042;-81
2021/11/04 08:49:22;;;;;;;1.20;0.82;;;;;;;3.63;100.00;94299.66;5028631;28;20098;-80
2021/11/04 08:51:48;;;;;;;1.52;0.85;;;;;;;3.64;99.58;94290.81;5016330;28;20043;-82
2021/11/04 08:54:13;;;;;;;2.13;1.20;;;;;;;3.72;100.00;94304.34;5041930;28;20041;-81
2021/11/04 08:56:40;;;;;;;1.92;0.75;;;;;;;3.71;99.90;94315.81;5023260;28;20630;-81
2021/11/04 08:59:05;;;;;;;2.20;0.75;;;;;;;3.76;100.00;94323.63;5026761;28;20041;-81
2021/11/04 09:01:35;;;;;;;6.88;1.23;;;;;;;3.71;100.00;94315.81;5028205;28;20123;-80
2021/11/04 09:04:01;;;;;;;1.15;0.80;;;;;;;3.73;100.00;94324.16;5041462;28;20051;-80
2021/11/04 09:06:27;;;;;;;1.75;0.70;;;;;;;3.75;98.93;94325.47;5022660;28;20041;-80
2021/11/04 09:08:53;;;;;;;3.58;0.77;;;;;;;3.75;100.00;94324.66;5019467;28;20159;-83
2021/11/04 09:11:19;;;;;;;1.40;0.90;;;;;;;3.84;100.00;94327.56;5032183;28;20044;-84
2021/11/04 09:13:46;;;;;;;1.80;1.17;;;;;;;3.83;100.00;94311.16;5019452;28;20045;-81
2021/11/04 09:16:12;;;;;;;1.38;0.90;;;;;;;3.77;100.00;94340.81;5013411;28;20048;-81
2021/11/04 09:18:38;;;;;;;2.08;0.88;;;;;;;3.96;100.00;94339.31;5014682;28;20037;-81
2021/11/04 09:21:05;;;;;;;0.85;0.85;;;;;;;4.05;99.66;94341.41;5017634;28;20836;-80
2021/11/04 09:23:30;;;;;;;1.65;0.93;;;;;;;4.17;100.00;94339.38;5025857;28;20037;-80
2021/11/04 09:25:56;;;;;;;2.42;1.10;;;;;;;4.34;98.90;94346.97;5022584;28;20068;-81
2021/11/04 09:28:22;;;;;;;3.03;1.15;;;;;;;4.38;99.73;94344.59;5021665;28;20041;-80
2021/11/04 09:30:48;;;;;;;1.65;1.10;;;;;;;4.45;98.56;94355.56;5023391;28;20072;-82
2021/11/04 09:33:14;;;;;;;2.13;1.02;;;;;;;4.71;97.16;94364.19;5019065;28;20112;-86
2021/11/04 09:35:40;;;;;;;5.75;1.55;;;;;;;4.82;96.48;94364.97;5012657;28;20046;-78
2021/11/04 09:38:06;;;;;;;3.95;1.55;;;;;;;4.86;96.13;94366.03;5020503;28;20092;-78
2021/11/04 09:40:33;;;;;;;1.70;1.35;;;;;;;4.92;96.83;94375.41;5021461;28;20045;-77
2021/11/04 09:42:59;;;;;;;1.27;1.08;;;;;;;4.94;96.97;94378.53;5023934;28;20041;-77
2021/11/04 09:45:27;;;;;;;1.10;0.90;;;;;;;5.02;94.83;94377.22;5020890;28;20080;-77
2021/11/04 09:47:53;;;;;;;3.70;1.08;;;;;;;5.02;94.12;94380.59;5025196;28;20037;-77
2021/11/04 09:50:19;;;;;;;4.00;1.13;;;;;;;5.07;93.14;94392.09;5022143;28;20440;-79
2021/11/04 09:52:47;;;;;;;1.80;1.13;;;;;;;5.25;94.34;94388.94;5017652;28;20056;-81
2021/11/04 09:55:19;;;;;;;2.88;1.20;;;;;;;5.26;91.63;94390.50;5017861;28;20038;-80
2021/11/04 09:57:47;;;;;;;3.65;1.23;;;;;;;5.67;90.66;94400.09;5029507;28;20045;-80
2021/11/04 10:00:14;;;;;;;2.08;1.20;;;;;;;5.47;93.16;94403.53;5041349;28;20492;-80
2021/11/04 10:02:43;;;;;;;1.48;1.20;;;;;;;5.57;92.69;94402.72;5031181;28;20099;-80
2021/11/04 10:05:11;;;;;;;1.05;0.93;;;;;;;6.00;90.16;94411.75;5025199;28;20496;-80
2021/11/04 10:07:56;;;;;;;4.35;1.30;;;;;;;6.26;87.81;94411.66;5012901;28;20508;-80
2021/11/04 10:10:23;;;;;;;1.80;1.15;;;;;;;6.58;86.41;94405.25;5010567;28;20048;-79
2021/11/04 10:13:09;;;;;;;1.10;0.90;;;;;;;6.41;84.89;94406.34;5025211;28;20414;-78
2021/11/04 10:15:39;;;;;;;1.08;0.88;;;;;;;7.68;83.90;94412.72;5026373;28;20124;-78
2021/11/04 10:18:19;;;;;;;1.85;1.10;;;;;;;7.14;82.31;94403.25;5037319;28;20042;-77
2021/11/04 10:21:12;;;;;;;1.35;1.10;;;;;;;7.40;82.64;94407.22;5021547;28;20045;-77
2021/11/04 10:23:45;;;;;;;1.27;1.17;;;;;;;6.97;81.89;94420.13;5015235;28;20057;-78
2021/11/04 10:26:32;;;;;;;1.02;1.00;;;;;;;6.86;83.81;94413.41;5028645;28;20068;-78
2021/11/04 10:29:10;;;;;;;1.38;1.25;;;;;;;6.60;84.29;94416.19;5029774;28;20072;-79
2021/11/04 10:31:52;;;;;;;1.98;1.30;;;;;;;7.25;81.92;94425.69;5026000;28;20087;-80
2021/11/04 10:34:28;;;;;;;1.63;1.30;;;;;;;7.83;77.37;94411.00;5029559;28;20407;-79
2021/11/04 10:37:10;;;;;;;1.73;1.30;;;;;;;8.71;78.81;94416.78;5026485;28;20045;-78
2021/11/04 10:39:38;;;;;;;1.40;1.15;;;;;;;9.24;73.69;94409.69;5044258;28;20033;-81
2021/11/04 10:42:04;;;;;;;1.75;1.25;;;;;;;7.89;76.37;94423.00;5026780;28;20053;-80
2021/11/04 10:44:31;;;;;;;1.70;1.30;;;;;;;8.15;75.55;94421.63;5031213;28;20051;-80
2021/11/04 10:46:58;;;;;;;1.48;1.00;;;;;;;7.26;77.47;94422.78;5030290;28;20041;-79
2021/11/04 10:49:39;;;;;;;3.22;1.10;;;;;;;7.21;81.54;94432.50;5027556;28;20060;-78
2021/11/04 10:52:07;;;;;;;2.13;1.30;;;;;;;7.01;79.98;94431.63;5023726;28;20046;-80
2021/11/04 10:54:42;;;;;;;1.23;1.00;;;;;;;7.40;78.81;94428.16;5019962;28;20059;-79
2021/11/04 10:57:08;;;;;;;1.48;1.27;;;;;;;6.76;82.96;94430.72;5028996;28;20102;-79
2021/11/04 10:59:46;;;;;;;1.13;1.05;;;;;;;6.78;81.82;94437.53;5028220;28;20046;-79
2021/11/04 11:02:12;;;;;;;1.42;1.15;;;;;;;6.74;81.04;94440.69;5029906;28;20045;-78
2021/11/04 11:04:38;;;;;;;1.20;1.10;;;;;;;6.39;82.82;94432.00;5029530;28;20073;-78
2021/11/04 11:07:05;;;;;;;1.85;1.20;;;;;;;6.28;81.42;94451.38;5026704;28;20042;-80
2021/11/04 11:09:33;;;;;;;1.30;1.00;;;;;;;6.45;81.78;94445.03;5024298;28;20053;-78
2021/11/04 11:12:04;;;;;;;1.55;1.40;;;;;;;6.27;84.38;94449.81;5029727;28;20067;-76
2021/11/04 11:14:31;;;;;;;1.65;1.10;;;;;;;7.01;81.11;94457.78;5029645;28;20071;-78
2021/11/04 11:17:02;;;;;;;1.95;1.27;;;;;;;6.44;82.93;94472.19;5027777;28;20049;-77
2021/11/04 11:19:31;;;;;;;1.50;1.10;;;;;;;6.45;82.28;94469.34;5028913;28;20046;-78
2021/11/04 11:21:58;;;;;;;0.80;0.80;;;;;;;6.60;81.57;94473.69;5031254;28;20049;-77
2021/11/04 11:24:38;;;;;;;1.63;1.25;;;;;;;6.53;81.68;94481.06;5030892;28;20048;-78
2021/11/04 11:27:07;;;;;;;1.33;1.05;;;;;;;6.46;81.09;94488.41;5021313;28;20044;-78
2021/11/04 11:29:41;;;;;;;3.15;1.00;;;;;;;6.81;80.60;94479.63;5021044;28;20045;-78
2021/11/04 11:32:22;;;;;;;1.67;1.13;;;;;;;6.61;79.59;94480.50;5029737;28;20037;-81
2021/11/04 11:34:49;;;;;;;1.83;1.13;;;;;;;6.70;79.48;94484.09;5028043;28;20045;-78
2021/11/04 11:37:16;;;;;;;1.00;1.00;;;;;;;6.58;80.72;94491.50;5028330;28;20084;-78
2021/11/04 11:39:53;;;;;;;1.05;0.90;;;;;;;6.48;81.01;94475.84;5025820;28;20045;-77